Time;durP1;ratioP1;P1;durP2;ratioP2;P2;SDS_P1;SDS_P2;PMS_P1;PMS_P2;Temp;Humidity;BMP_temperature;BMP_pressure;BME280_temperature;BME280_humidity;BME280_pressure;Samples;Min_cycle;Max_cycle;Signal;HPM_P1;HPM_P2
2022/10/08 00:01:32;;;;;;;8.20;5.43;;;10.80;99.90;;;;;;5013144;28;20425;-70
2022/10/08 00:04:02;;;;;;;7.00;6.00;;;10.70;99.90;;;;;;5012111;28;20785;-71
2022/10/08 00:06:33;;;;;;;8.33;6.27;;;10.80;99.90;;;;;;5012800;28;20445;-69
2022/10/08 00:09:05;;;;;;;6.87;5.47;;;10.80;99.90;;;;;;5012766;28;20757;-70
2022/10/08 00:11:36;;;;;;;7.70;6.00;;;10.80;99.90;;;;;;5006075;28;20455;-71
2022/10/08 00:14:05;;;;;;;12.47;6.03;;;10.80;99.90;;;;;;5013244;28;20497;-72
2022/10/08 00:16:36;;;;;;;10.60;5.43;;;10.80;99.90;;;;;;5012932;28;20549;-70
2022/10/08 00:19:07;;;;;;;13.53;6.30;;;10.90;99.90;;;;;;5020426;28;20810;-70
2022/10/08 00:21:39;;;;;;;12.70;7.27;;;10.70;99.90;;;;;;5015888;28;20480;-70
2022/10/08 00:24:09;;;;;;;12.57;5.83;;;10.70;99.90;;;;;;5013082;28;20874;-70
2022/10/08 00:26:38;;;;;;;9.47;5.53;;;10.50;99.90;;;;;;5017391;28;20520;-70
2022/10/08 00:29:13;;;;;;;8.30;5.60;;;10.40;99.90;;;;;;5012604;28;20405;-69
2022/10/08 00:31:44;;;;;;;10.13;5.30;;;10.30;99.90;;;;;;5012251;28;20403;-70
2022/10/08 00:34:19;;;;;;;13.10;6.47;;;10.30;99.90;;;;;;5013462;28;20398;-71
2022/10/08 00:36:51;;;;;;;8.63;5.30;;;10.30;99.90;;;;;;5014302;28;20482;-69
2022/10/08 00:39:22;;;;;;;7.40;5.57;;;10.30;99.90;;;;;;5011933;28;20435;-70
2022/10/08 00:41:52;;;;;;;10.23;6.13;;;10.40;99.90;;;;;;5023309;28;20526;-70
2022/10/08 00:44:53;;;;;;;7.50;6.30;;;10.40;99.90;;;;;;5012858;28;20441;-70
2022/10/08 00:47:48;;;;;;;10.40;6.33;;;10.30;99.90;;;;;;5012222;28;20547;-69
2022/10/08 00:50:20;;;;;;;9.70;6.20;;;10.30;99.90;;;;;;5011332;28;20414;-71
2022/10/08 00:52:55;;;;;;;14.03;6.07;;;10.30;99.90;;;;;;5011912;28;20431;-71
2022/10/08 00:55:26;;;;;;;9.47;5.90;;;10.30;99.90;;;;;;4998331;28;20505;-71
2022/10/08 00:58:01;;;;;;;8.47;5.47;;;10.20;99.90;;;;;;5020090;28;20698;-71
2022/10/08 01:00:31;;;;;;;12.73;6.23;;;10.10;99.90;;;;;;5024913;28;20421;-71
2022/10/08 01:03:02;;;;;;;8.00;6.10;;;10.20;99.90;;;;;;5011991;28;20428;-71
2022/10/08 01:05:43;;;;;;;11.67;7.40;;;10.20;99.90;;;;;;5011612;28;20464;-70
2022/10/08 01:08:17;;;;;;;8.50;5.70;;;10.10;99.90;;;;;;5028182;28;20440;-71
2022/10/08 01:10:57;;;;;;;10.17;6.17;;;10.20;99.90;;;;;;5030998;28;20412;-69
2022/10/08 01:13:37;;;;;;;14.80;6.50;;;10.20;99.90;;;;;;5030071;28;20794;-70
2022/10/08 01:16:13;;;;;;;8.43;6.23;;;10.10;99.90;;;;;;5022891;28;21240;-70
2022/10/08 01:18:50;;;;;;;6.67;5.87;;;10.10;99.90;;;;;;5010848;28;20449;-70
2022/10/08 01:21:27;;;;;;;8.47;6.40;;;10.10;99.90;;;;;;5021670;28;20519;-69
2022/10/08 01:24:19;;;;;;;19.70;5.83;;;10.20;99.90;;;;;;5030760;28;20473;-69
2022/10/08 01:27:03;;;;;;;11.17;6.07;;;10.20;99.90;;;;;;5028984;28;20527;-70
2022/10/08 01:29:39;;;;;;;6.77;5.77;;;10.20;99.90;;;;;;5030938;28;20827;-70
2022/10/08 01:32:13;;;;;;;9.10;7.60;;;10.30;99.90;;;;;;5030446;28;20495;-72
2022/10/08 01:34:46;;;;;;;9.23;5.87;;;10.30;99.90;;;;;;5030494;28;20942;-70
2022/10/08 01:37:20;;;;;;;11.60;6.40;;;10.40;99.90;;;;;;5019698;28;20417;-69
2022/10/08 01:39:50;;;;;;;15.50;7.50;;;10.40;99.90;;;;;;5010282;28;20779;-71
2022/10/08 01:42:23;;;;;;;9.50;6.23;;;10.30;99.90;;;;;;5010284;28;21184;-70
2022/10/08 01:44:57;;;;;;;10.13;5.30;;;10.50;1.00;;;;;;5017160;28;20902;-69
2022/10/08 01:47:27;;;;;;;10.00;6.80;;;10.50;99.90;;;;;;5029646;28;20411;-69
2022/10/08 01:50:00;;;;;;;12.80;6.73;;;10.60;99.90;;;;;;5022647;28;20523;-70
2022/10/08 01:52:32;;;;;;;9.67;7.27;;;10.60;99.90;;;;;;5010048;28;20533;-70
2022/10/08 01:55:04;;;;;;;8.40;6.50;;;10.60;99.90;;;;;;5009090;28;20460;-70
2022/10/08 01:57:36;;;;;;;8.80;6.50;;;10.60;99.90;;;;;;5010528;28;20816;-70
2022/10/08 02:00:08;;;;;;;9.10;6.40;;;10.50;99.90;;;;;;5019811;28;20876;-70
2022/10/08 02:02:40;;;;;;;8.90;6.53;;;10.50;99.90;;;;;;5029516;28;20459;-69
2022/10/08 02:05:10;;;;;;;7.83;6.77;;;10.50;99.90;;;;;;5030698;28;20459;-69
2022/10/08 02:07:41;;;;;;;11.50;7.83;;;10.50;99.90;;;;;;5030844;28;20497;-70
2022/10/08 02:10:11;;;;;;;14.37;6.93;;;10.50;99.90;;;;;;5020525;28;20790;-70
2022/10/08 02:12:41;;;;;;;11.43;6.03;;;10.50;99.90;;;;;;5010501;28;20420;-70
2022/10/08 02:15:14;;;;;;;10.03;4.93;;;10.50;99.90;;;;;;5010892;28;20449;-69
2022/10/08 02:17:53;;;;;;;8.60;7.07;;;10.50;99.90;;;;;;5016725;28;20426;-70
2022/10/08 02:20:30;;;;;;;13.50;6.70;;;10.50;99.90;;;;;;5029621;28;20976;-69
2022/10/08 02:23:04;;;;;;;9.80;6.00;;;10.60;99.90;;;;;;5029211;28;20412;-69
2022/10/08 02:25:37;;;;;;;7.90;6.20;;;10.60;99.90;;;;;;5014868;28;20461;-71
2022/10/08 02:28:12;;;;;;;8.17;6.00;;;10.60;99.90;;;;;;5008464;28;20441;-69
2022/10/08 02:30:48;;;;;;;8.03;7.23;;;10.60;99.90;;;;;;5009939;28;20416;-69
2022/10/08 02:33:23;;;;;;;8.63;5.40;;;10.60;99.90;;;;;;5028341;28;20396;-69
2022/10/08 02:35:54;;;;;;;11.83;7.07;;;10.60;99.90;;;;;;5029676;28;20443;-69
2022/10/08 02:38:27;;;;;;;15.13;7.43;;;10.60;1.00;;;;;;5025968;28;20419;-70
2022/10/08 02:40:59;;;;;;;9.77;5.40;;;10.60;1.00;;;;;;5010383;28;20939;-70
2022/10/08 02:43:31;;;;;;;11.53;6.20;;;10.60;1.00;;;;;;5010440;28;20413;-70
2022/10/08 02:46:08;;;;;;;9.20;7.30;;;10.70;1.00;;;;;;5011848;28;20985;-69
2022/10/08 02:48:41;;;;;;;10.70;6.40;;;10.70;99.90;;;;;;5011988;28;20399;-70
2022/10/08 02:51:14;;;;;;;8.63;6.77;;;10.70;99.90;;;;;;5067045;22;20490;-71
2022/10/08 02:53:44;;;;;;;13.10;6.13;;;10.70;99.90;;;;;;5057166;28;20436;-71
2022/10/08 02:56:17;;;;;;;6.90;6.40;;;10.60;99.90;;;;;;5052558;28;20412;-71
2022/10/08 02:58:46;;;;;;;6.20;5.60;;;10.60;99.90;;;;;;5041484;28;20467;-72
2022/10/08 03:01:25;;;;;;;11.83;6.50;;;10.50;99.90;;;;;;5033794;28;20432;-72
2022/10/08 03:03:58;;;;;;;7.77;6.03;;;10.40;1.00;;;;;;5035976;28;20427;-72
2022/10/08 03:06:28;;;;;;;9.90;6.60;;;10.40;1.00;;;;;;5043937;28;20430;-73
2022/10/08 03:08:59;;;;;;;8.37;6.50;;;10.40;1.00;;;;;;5029361;28;20429;-71
2022/10/08 03:11:29;;;;;;;9.80;5.57;;;10.40;1.00;;;;;;5025193;28;20424;-71
2022/10/08 03:13:59;;;;;;;9.60;7.87;;;10.30;1.00;;;;;;5040294;28;20451;-71
2022/10/08 03:16:38;;;;;;;15.90;6.57;;;10.30;1.00;;;;;;5035168;28;20435;-72
2022/10/08 03:19:09;;;;;;;9.80;5.97;;;10.30;1.00;;;;;;5019362;28;20459;-72
2022/10/08 03:21:38;;;;;;;9.67;6.73;;;10.30;1.00;;;;;;5039305;28;20435;-72
2022/10/08 03:24:07;;;;;;;8.97;5.87;;;10.30;1.00;;;;;;5051030;28;20875;-73
2022/10/08 03:26:36;;;;;;;11.23;6.47;;;10.20;1.00;;;;;;5024631;28;20425;-72
2022/10/08 03:29:05;;;;;;;7.90;6.07;;;10.20;1.00;;;;;;5012701;28;20388;-72
2022/10/08 03:31:35;;;;;;;7.00;6.13;;;10.30;1.00;;;;;;5013019;28;20742;-72
2022/10/08 03:34:03;;;;;;;7.60;6.37;;;10.30;1.00;;;;;;5026722;28;20452;-72
2022/10/08 03:36:32;;;;;;;8.77;6.43;;;10.40;1.00;;;;;;5041864;28;20431;-72
2022/10/08 03:39:00;;;;;;;6.07;5.30;;;10.40;1.00;;;;;;5047131;28;20459;-72
2022/10/08 03:41:30;;;;;;;9.40;5.80;;;10.30;1.00;;;;;;5046496;28;20799;-72
2022/10/08 03:43:59;;;;;;;8.60;5.37;;;10.30;1.00;;;;;;5054643;28;20917;-71
2022/10/08 03:46:27;;;;;;;7.40;6.43;;;10.40;1.00;;;;;;5063776;28;20459;-72
2022/10/08 03:48:57;;;;;;;7.47;5.50;;;10.30;1.00;;;;;;5046375;28;20424;-71
2022/10/08 03:51:26;;;;;;;12.83;6.50;;;10.40;1.00;;;;;;5059949;28;20447;-71
2022/10/08 03:53:54;;;;;;;7.47;5.60;;;10.50;1.00;;;;;;5061208;28;20971;-71
2022/10/08 03:56:24;;;;;;;7.40;6.03;;;10.50;1.00;;;;;;5061727;28;20437;-71
2022/10/08 03:58:55;;;;;;;5.37;4.87;;;10.50;1.00;;;;;;5059367;28;20936;-72
2022/10/08 04:01:25;;;;;;;8.43;5.60;;;10.60;99.90;;;;;;5062570;28;20449;-72
2022/10/08 04:03:54;;;;;;;8.40;6.10;;;10.60;99.90;;;;;;5058542;28;20541;-70
2022/10/08 04:06:24;;;;;;;11.20;5.70;;;10.70;99.90;;;;;;5047536;28;20439;-72
2022/10/08 04:08:52;;;;;;;16.63;6.17;;;10.80;99.90;;;;;;5035142;28;20920;-71
2022/10/08 04:11:20;;;;;;;6.73;5.83;;;10.80;99.90;;;;;;5050625;28;20522;-71
2022/10/08 04:13:49;;;;;;;11.63;5.93;;;10.90;99.90;;;;;;5040527;28;20444;-71
2022/10/08 04:16:18;;;;;;;6.60;5.00;;;10.90;99.90;;;;;;5034441;28;20478;-70
2022/10/08 04:18:47;;;;;;;11.97;6.00;;;10.90;99.90;;;;;;5028594;28;20971;-71
2022/10/08 04:21:20;;;;;;;9.20;4.73;;;11.00;99.90;;;;;;5052946;28;20438;-71
2022/10/08 04:23:50;;;;;;;6.30;5.70;;;11.00;99.90;;;;;;5045755;28;20447;-72
2022/10/08 04:26:18;;;;;;;7.50;5.87;;;11.00;99.90;;;;;;5050434;28;20423;-72
2022/10/08 04:28:47;;;;;;;10.20;4.83;;;10.80;99.90;;;;;;5039154;28;20782;-72
2022/10/08 04:31:18;;;;;;;8.53;4.80;;;10.90;99.90;;;;;;5038716;28;20473;-72
2022/10/08 04:33:47;;;;;;;7.87;5.53;;;10.90;99.90;;;;;;5034573;28;20445;-72
2022/10/08 04:36:17;;;;;;;8.50;5.30;;;10.90;99.90;;;;;;5034666;28;20451;-72
2022/10/08 04:38:46;;;;;;;14.13;5.27;;;10.80;99.90;;;;;;5041438;28;20402;-71
2022/10/08 04:41:17;;;;;;;7.90;6.40;;;10.90;99.90;;;;;;5037214;28;20455;-71
2022/10/08 04:43:46;;;;;;;13.10;5.23;;;10.70;99.90;;;;;;5051745;28;20463;-72
2022/10/08 04:46:17;;;;;;;10.40;4.90;;;10.60;99.90;;;;;;5043196;28;20530;-72
2022/10/08 04:48:47;;;;;;;12.03;6.13;;;10.50;99.90;;;;;;5036101;28;20781;-72
2022/10/08 04:51:16;;;;;;;6.00;5.00;;;10.50;99.90;;;;;;5034414;28;20407;-72
2022/10/08 04:53:45;;;;;;;9.40;5.30;;;10.40;99.90;;;;;;5032832;28;20434;-72
2022/10/08 04:56:18;;;;;;;5.60;4.30;;;10.40;99.90;;;;;;5034546;28;20403;-71
2022/10/08 04:58:46;;;;;;;7.93;4.90;;;10.30;99.90;;;;;;5047840;28;20733;-72
2022/10/08 05:01:17;;;;;;;6.73;5.27;;;10.30;99.90;;;;;;5037611;28;20508;-72
2022/10/08 05:03:48;;;;;;;8.50;5.37;;;10.30;1.00;;;;;;5052059;28;20565;-73
2022/10/08 05:06:17;;;;;;;8.10;5.30;;;10.20;1.00;;;;;;5040801;28;20858;-72
2022/10/08 05:08:46;;;;;;;9.33;7.90;;;10.10;1.00;;;;;;5030924;28;20431;-72
2022/10/08 05:11:17;;;;;;;5.97;5.17;;;10.10;1.00;;;;;;5033878;28;20459;-72
2022/10/08 05:13:50;;;;;;;7.87;5.30;;;10.00;1.00;;;;;;5053890;28;20435;-72
2022/10/08 05:16:19;;;;;;;11.63;5.20;;;10.00;1.00;;;;;;5048482;28;20432;-73
2022/10/08 05:18:49;;;;;;;5.00;3.83;;;10.00;1.00;;;;;;5042144;28;20425;-71
2022/10/08 05:21:19;;;;;;;9.73;6.10;;;9.90;1.00;;;;;;5053706;28;20447;-72
2022/10/08 05:23:48;;;;;;;7.93;5.40;;;9.90;1.00;;;;;;5047784;28;20448;-72
2022/10/08 05:26:19;;;;;;;7.33;5.10;;;9.80;1.00;;;;;;5033205;28;21030;-72
2022/10/08 05:29:10;;;;;;;9.20;5.93;;;9.80;99.90;;;;;;5033605;28;20409;-71
2022/10/08 05:31:38;;;;;;;7.00;5.53;;;9.80;99.90;;;;;;5035922;28;20390;-71
2022/10/08 05:34:07;;;;;;;10.80;4.93;;;9.80;99.90;;;;;;5027485;28;20456;-72
2022/10/08 05:36:35;;;;;;;6.33;5.40;;;9.80;1.00;;;;;;5043873;28;20423;-72
2022/10/08 05:39:05;;;;;;;12.57;6.17;;;9.80;1.00;;;;;;5047759;28;20435;-73
2022/10/08 05:41:36;;;;;;;12.13;6.13;;;9.90;1.00;;;;;;5044343;28;20487;-71
2022/10/08 05:44:11;;;;;;;15.67;6.00;;;10.00;1.00;;;;;;5016174;28;20424;-72
2022/10/08 05:46:40;;;;;;;9.60;5.57;;;10.00;1.00;;;;;;5030143;28;20479;-72
2022/10/08 05:49:14;;;;;;;8.47;5.93;;;10.00;99.90;;;;;;5031319;28;20426;-72
2022/10/08 05:51:42;;;;;;;18.37;6.07;;;10.00;5.20;;;;;;5048722;28;20414;-72
2022/10/08 05:54:11;;;;;;;11.63;6.70;;;10.10;22.70;;;;;;5029198;28;20452;-72
2022/10/08 05:56:41;;;;;;;8.37;6.77;;;10.10;12.20;;;;;;5036356;28;20413;-71
2022/10/08 05:59:15;;;;;;;8.47;5.20;;;10.20;1.00;;;;;;5029568;28;20443;-72
2022/10/08 06:01:44;;;;;;;11.90;5.93;;;10.30;1.00;;;;;;5033194;28;20470;-73
2022/10/08 06:04:12;;;;;;;7.70;4.93;;;10.30;1.00;;;;;;5045690;28;20551;-72
2022/10/08 06:06:43;;;;;;;6.37;4.87;;;10.30;1.00;;;;;;5042251;28;20484;-72
2022/10/08 06:09:14;;;;;;;6.37;4.73;;;10.40;1.00;;;;;;5058884;28;20410;-71
2022/10/08 06:11:44;;;;;;;7.00;4.70;;;10.30;1.00;;;;;;5047753;28;20477;-72
2022/10/08 06:14:15;;;;;;;8.63;6.00;;;10.40;1.00;;;;;;5053728;28;20463;-72
2022/10/08 06:16:44;;;;;;;6.50;5.33;;;10.40;1.00;;;;;;5033301;28;20425;-72
2022/10/08 06:19:12;;;;;;;7.47;5.07;;;10.40;1.00;;;;;;5033361;28;20390;-72
2022/10/08 06:21:41;;;;;;;9.03;5.00;;;10.40;1.00;;;;;;5033241;28;20439;-71
2022/10/08 06:24:11;;;;;;;7.23;5.80;;;10.40;1.00;;;;;;5020280;28;20427;-71
2022/10/08 06:26:42;;;;;;;10.20;4.77;;;10.50;1.00;;;;;;5031062;28;20923;-71
2022/10/08 06:29:14;;;;;;;10.23;5.60;;;10.50;1.00;;;;;;5040675;28;20436;-72
2022/10/08 06:31:43;;;;;;;12.00;6.07;;;10.50;1.00;;;;;;5032851;28;20427;-72
2022/10/08 06:34:12;;;;;;;9.73;6.97;;;10.60;99.90;;;;;;5026304;28;20547;-72
2022/10/08 06:36:40;;;;;;;8.80;5.00;;;10.60;99.90;;;;;;5046237;28;20435;-71
2022/10/08 06:39:12;;;;;;;5.33;4.83;;;10.70;99.90;;;;;;5052953;28;20944;-73
2022/10/08 06:41:40;;;;;;;12.50;5.23;;;10.90;99.90;;;;;;5033111;28;20543;-71
2022/10/08 06:44:14;;;;;;;8.07;4.07;;;11.00;99.90;;;;;;5034816;28;20414;-73
2022/10/08 06:46:42;;;;;;;6.60;5.77;;;11.10;99.90;;;;;;5048231;28;20471;-72
2022/10/08 06:49:12;;;;;;;10.20;4.77;;;11.10;99.90;;;;;;5045145;28;20792;-72
2022/10/08 06:51:40;;;;;;;8.30;5.37;;;11.20;99.90;;;;;;5034300;28;20919;-73
2022/10/08 06:54:09;;;;;;;5.20;4.43;;;11.30;99.90;;;;;;5037259;28;20456;-72
2022/10/08 06:56:38;;;;;;;5.47;4.77;;;11.50;99.90;;;;;;5032515;28;20768;-71
2022/10/08 06:59:07;;;;;;;10.80;5.40;;;11.60;99.90;;;;;;5014741;28;20425;-72
2022/10/08 07:01:37;;;;;;;10.70;5.53;;;11.70;99.90;;;;;;5040314;28;20985;-72
2022/10/08 07:04:06;;;;;;;11.53;6.73;;;11.90;99.90;;;;;;5053855;28;20511;-73
2022/10/08 07:06:34;;;;;;;14.13;6.00;;;12.10;99.90;;;;;;5053085;28;20448;-73
2022/10/08 07:09:05;;;;;;;14.27;6.97;;;12.30;99.90;;;;;;5048825;28;20771;-73
2022/10/08 07:11:34;;;;;;;10.43;3.97;;;12.40;99.90;;;;;;5039953;28;20416;-73
2022/10/08 07:14:02;;;;;;;5.00;3.60;;;12.30;99.90;;;;;;5055043;28;20550;-71
2022/10/08 07:16:31;;;;;;;7.13;4.10;;;12.40;99.90;;;;;;5051385;28;20401;-72
2022/10/08 07:19:00;;;;;;;11.17;4.93;;;12.40;99.90;;;;;;5044054;28;20881;-72
2022/10/08 07:21:29;;;;;;;6.30;4.23;;;12.50;99.90;;;;;;5047437;28;20479;-72
2022/10/08 07:24:00;;;;;;;7.70;5.63;;;12.70;99.90;;;;;;5044170;28;20483;-73
2022/10/08 07:26:31;;;;;;;7.90;5.20;;;12.80;99.90;;;;;;5025579;28;20770;-72
2022/10/08 07:29:01;;;;;;;14.13;5.03;;;12.90;99.90;;;;;;5038517;28;20455;-72
2022/10/08 07:31:31;;;;;;;10.80;4.50;;;13.10;99.90;;;;;;5046227;28;20448;-72
2022/10/08 07:34:03;;;;;;;6.80;3.60;;;13.30;99.90;;;;;;5030235;28;20456;-72
2022/10/08 07:36:32;;;;;;;5.73;3.90;;;13.50;99.90;;;;;;5041254;28;20431;-73
2022/10/08 07:39:03;;;;;;;10.07;3.57;;;13.50;99.90;;;;;;5051235;28;20435;-72
2022/10/08 07:41:31;;;;;;;7.00;2.97;;;13.50;97.80;;;;;;5034942;28;20966;-74
2022/10/08 07:44:01;;;;;;;10.80;3.90;;;13.50;95.30;;;;;;5033146;28;20830;-72
2022/10/08 07:46:31;;;;;;;4.07;3.00;;;13.40;95.20;;;;;;5039075;28;20399;-72
2022/10/08 07:49:02;;;;;;;8.53;3.37;;;13.40;93.90;;;;;;5039027;28;20430;-71
2022/10/08 07:51:32;;;;;;;8.20;2.93;;;13.50;93.60;;;;;;5033105;28;20429;-73
2022/10/08 07:54:01;;;;;;;12.80;2.80;;;13.60;92.00;;;;;;5041984;28;20509;-73
2022/10/08 07:56:32;;;;;;;8.50;4.17;;;13.80;87.50;;;;;;5040464;28;20437;-72
2022/10/08 07:59:13;;;;;;;12.50;3.83;;;13.90;83.20;;;;;;5026919;28;20429;-72
2022/10/08 08:01:42;;;;;;;8.03;3.90;;;14.00;79.00;;;;;;5048825;28;20454;-72
2022/10/08 08:04:13;;;;;;;12.20;2.73;;;14.20;90.00;;;;;;5048194;28;20447;-72
2022/10/08 08:06:44;;;;;;;5.23;3.50;;;14.20;69.80;;;;;;5029027;28;20823;-72
2022/10/08 08:09:13;;;;;;;7.70;4.03;;;14.30;64.10;;;;;;5023127;28;20428;-72
2022/10/08 08:11:41;;;;;;;10.30;3.77;;;14.30;58.60;;;;;;5049350;28;20534;-72
2022/10/08 08:14:10;;;;;;;16.00;3.20;;;14.40;59.00;;;;;;5032865;28;20840;-72
2022/10/08 08:16:39;;;;;;;9.00;3.27;;;14.50;57.40;;;;;;5029932;28;20499;-72
2022/10/08 08:19:07;;;;;;;5.17;2.80;;;14.60;53.80;;;;;;5047252;28;20423;-72
2022/10/08 08:22:32;;;;;;;5.60;3.83;;;14.60;52.40;;;;;;5032722;28;20459;-72
2022/10/08 08:25:02;;;;;;;15.60;3.47;;;14.70;49.20;;;;;;5034703;28;20448;-72
2022/10/08 08:27:31;;;;;;;11.33;2.83;;;14.70;47.60;;;;;;5031987;28;20433;-71
2022/10/08 08:30:00;;;;;;;7.37;2.70;;;14.80;46.00;;;;;;5044018;28;20435;-73
2022/10/08 08:32:28;;;;;;;11.43;4.23;;;14.80;43.70;;;;;;5042091;28;20443;-72
2022/10/08 08:34:56;;;;;;;9.67;3.97;;;14.90;42.70;;;;;;5044757;28;20451;-72
2022/10/08 08:37:25;;;;;;;7.83;3.40;;;15.00;41.20;;;;;;5046267;28;20430;-72
2022/10/08 08:40:27;;;;;;;5.77;2.37;;;14.90;38.90;;;;;;5045097;28;20395;-72
2022/10/08 08:42:56;;;;;;;5.30;3.40;;;15.00;37.40;;;;;;5030145;28;20442;-73
2022/10/08 08:45:27;;;;;;;12.83;3.20;;;15.00;38.10;;;;;;5022455;28;20449;-72
2022/10/08 08:49:05;;;;;;;5.60;4.03;;;15.10;37.00;;;;;;5041998;28;20489;-73
2022/10/08 08:51:34;;;;;;;5.57;3.27;;;15.20;36.90;;;;;;5040732;28;20419;-72
2022/10/08 08:54:02;;;;;;;6.90;3.73;;;15.40;37.20;;;;;;5044342;28;20870;-73
2022/10/08 08:56:34;;;;;;;5.47;3.40;;;15.40;33.20;;;;;;5038481;28;20848;-72
2022/10/08 08:59:09;;;;;;;7.40;3.90;;;15.40;34.30;;;;;;5025094;28;20395;-73
2022/10/08 09:01:43;;;;;;;14.93;4.97;;;15.30;32.60;;;;;;5031429;28;20410;-72
2022/10/08 09:04:17;;;;;;;6.80;4.50;;;15.50;32.40;;;;;;5059103;22;20855;-68
2022/10/08 09:06:46;;;;;;;14.00;4.10;;;15.70;31.00;;;;;;5030921;28;20476;-67
2022/10/08 09:09:24;;;;;;;10.63;4.23;;;15.90;30.90;;;;;;5039706;28;20978;-67
2022/10/08 09:11:54;;;;;;;7.70;3.83;;;16.20;29.00;;;;;;5029279;28;20450;-68
2022/10/08 09:14:34;;;;;;;13.87;4.40;;;16.40;27.30;;;;;;5018077;28;20468;-68
2022/10/08 09:17:13;;;;;;;6.17;4.30;;;16.30;24.40;;;;;;5014579;28;20515;-67
2022/10/08 09:19:43;;;;;;;14.60;4.10;;;16.20;24.50;;;;;;5027337;28;20441;-68
2022/10/08 09:22:22;;;;;;;6.03;3.57;;;16.40;24.90;;;;;;5044989;28;20434;-68
2022/10/08 09:24:56;;;;;;;9.53;4.13;;;16.40;23.00;;;;;;5028207;28;20460;-68
2022/10/08 09:27:42;;;;;;;11.10;4.40;;;16.50;23.20;;;;;;5034327;28;20539;-67
2022/10/08 09:30:32;;;;;;;10.87;5.17;;;16.60;21.10;;;;;;5021644;28;20518;-67
2022/10/08 09:33:04;;;;;;;17.40;4.80;;;16.60;20.50;;;;;;5030627;28;20443;-67
2022/10/08 09:35:42;;;;;;;5.23;3.20;;;16.50;19.00;;;;;;5026976;28;20564;-67
2022/10/08 09:38:22;;;;;;;10.83;4.70;;;16.50;19.80;;;;;;5040781;28;20415;-67
2022/10/08 09:41:16;;;;;;;8.13;4.30;;;16.60;19.20;;;;;;5031922;28;20431;-69
2022/10/08 09:44:10;;;;;;;10.03;4.27;;;16.70;17.70;;;;;;5024187;28;20462;-68
2022/10/08 09:46:38;;;;;;;14.00;4.93;;;16.80;17.80;;;;;;5024768;28;20409;-68
2022/10/08 09:49:38;;;;;;;16.93;4.20;;;16.70;15.00;;;;;;5035312;28;20433;-69
2022/10/08 09:52:12;;;;;;;16.03;5.00;;;16.50;15.00;;;;;;4930534;28;20402;-68
2022/10/08 09:54:48;;;;;;;8.13;4.30;;;16.40;15.40;;;;;;5003856;28;20476;-67
2022/10/08 09:57:19;;;;;;;7.60;4.20;;;16.30;14.90;;;;;;5031105;28;20486;-68
2022/10/08 09:59:56;;;;;;;12.47;3.87;;;16.10;15.30;;;;;;5026554;28;20813;-68
2022/10/08 10:02:32;;;;;;;8.40;3.57;;;16.10;14.40;;;;;;5036286;28;20795;-68
2022/10/08 10:05:04;;;;;;;9.00;3.40;;;16.00;14.70;;;;;;5009947;28;20531;-68
2022/10/08 10:07:39;;;;;;;10.33;4.20;;;16.10;16.70;;;;;;5011072;28;20475;-69
2022/10/08 10:10:18;;;;;;;7.10;3.53;;;16.30;15.90;;;;;;5022326;28;20432;-67
2022/10/08 10:12:51;;;;;;;7.37;4.20;;;16.50;15.40;;;;;;5012719;28;21018;-68
2022/10/08 10:15:24;;;;;;;9.60;4.93;;;16.40;14.00;;;;;;5030137;28;20962;-68
2022/10/08 10:17:54;;;;;;;8.13;3.43;;;16.50;12.90;;;;;;5048011;28;20929;-68
2022/10/08 10:20:27;;;;;;;9.93;4.93;;;16.50;11.30;;;;;;5029391;28;20449;-68
2022/10/08 10:23:01;;;;;;;12.93;3.83;;;16.50;11.00;;;;;;5031123;28;20439;-72
2022/10/08 10:25:36;;;;;;;5.20;4.10;;;16.40;9.90;;;;;;5031773;28;20768;-67
2022/10/08 10:28:11;;;;;;;8.07;3.40;;;16.30;10.10;;;;;;5029876;28;20454;-67
2022/10/08 10:30:51;;;;;;;10.57;4.47;;;16.20;10.20;;;;;;5010847;28;20471;-68
2022/10/08 10:33:24;;;;;;;9.63;3.83;;;16.20;11.40;;;;;;5010265;28;20488;-70
2022/10/08 10:35:56;;;;;;;6.20;3.23;;;16.30;11.60;;;;;;5010399;28;20456;-68
2022/10/08 10:38:27;;;;;;;11.83;5.43;;;16.20;10.40;;;;;;5027880;28;20426;-67
2022/10/08 10:41:08;;;;;;;8.57;3.30;;;16.20;11.80;;;;;;5030954;28;20428;-69
2022/10/08 10:43:44;;;;;;;9.27;3.80;;;16.30;11.20;;;;;;5026617;28;20456;-68
2022/10/08 10:46:24;;;;;;;8.50;3.93;;;16.40;10.10;;;;;;5031255;28;20527;-67
2022/10/08 10:48:53;;;;;;;10.97;4.23;;;16.40;10.70;;;;;;5028477;28;20436;-68
2022/10/08 10:51:40;;;;;;;9.53;4.10;;;16.40;10.20;;;;;;5028189;28;20432;-68
2022/10/08 10:54:25;;;;;;;11.37;4.17;;;16.30;10.00;;;;;;5050859;28;20506;-68
2022/10/08 10:57:00;;;;;;;9.60;3.67;;;16.10;8.90;;;;;;5041000;28;20418;-68
2022/10/08 10:59:38;;;;;;;4.70;3.17;;;16.00;9.20;;;;;;5034897;28;20437;-67
2022/10/08 11:02:14;;;;;;;8.90;3.70;;;16.00;10.10;;;;;;5029675;28;20434;-68
2022/10/08 11:04:50;;;;;;;8.90;3.83;;;15.80;10.30;;;;;;5032282;28;20632;-68
2022/10/08 11:07:36;;;;;;;4.93;3.87;;;15.80;11.10;;;;;;5021329;28;20786;-68
2022/10/08 11:10:15;;;;;;;8.30;3.80;;;15.50;10.60;;;;;;5033155;28;20758;-67
2022/10/08 11:12:49;;;;;;;7.43;3.50;;;15.40;13.10;;;;;;5033846;28;20409;-68
2022/10/08 11:15:24;;;;;;;7.03;4.07;;;15.40;14.30;;;;;;5043844;28;20513;-67
2022/10/08 11:18:15;;;;;;;7.30;5.07;;;15.40;14.50;;;;;;5045384;28;20515;-67
2022/10/08 11:20:55;;;;;;;12.70;5.30;;;15.50;15.50;;;;;;5012311;28;20942;-68
2022/10/08 11:23:39;;;;;;;10.50;5.47;;;15.60;15.80;;;;;;5026791;28;20460;-69
2022/10/08 11:26:17;;;;;;;5.27;3.50;;;15.80;14.00;;;;;;5013540;28;20523;-68
2022/10/08 11:29:01;;;;;;;6.57;4.17;;;15.80;13.00;;;;;;5022888;28;20432;-68
2022/10/08 11:31:39;;;;;;;6.00;3.20;;;15.50;13.10;;;;;;5018425;28;20452;-68
2022/10/08 11:34:22;;;;;;;11.43;3.60;;;15.50;14.80;;;;;;5017468;28;20822;-68
2022/10/08 11:37:02;;;;;;;7.53;3.83;;;15.40;14.40;;;;;;5011803;28;20939;-66
2022/10/08 11:39:40;;;;;;;4.80;2.80;;;15.40;14.70;;;;;;5018785;28;20448;-69
2022/10/08 11:42:18;;;;;;;5.70;3.03;;;15.40;15.30;;;;;;5019081;28;20468;-68
2022/10/08 11:44:48;;;;;;;8.50;4.07;;;15.50;16.30;;;;;;5017450;28;20458;-66
2022/10/08 11:47:48;;;;;;;6.30;2.90;;;15.60;14.80;;;;;;5041201;28;20425;-67
2022/10/08 11:50:28;;;;;;;6.13;2.83;;;15.50;14.80;;;;;;5026440;28;20783;-67
2022/10/08 11:53:00;;;;;;;7.70;3.63;;;15.60;16.90;;;;;;5020163;28;20523;-67
2022/10/08 11:55:32;;;;;;;5.00;3.43;;;15.70;16.90;;;;;;5018382;28;20438;-68
2022/10/08 11:58:03;;;;;;;6.50;3.57;;;15.90;16.20;;;;;;5038845;28;21048;-67
2022/10/08 12:00:41;;;;;;;7.93;3.23;;;15.90;15.40;;;;;;5033606;28;20389;-67
2022/10/08 12:03:22;;;;;;;7.60;3.90;;;15.90;15.50;;;;;;5019966;28;20445;-67
2022/10/08 12:05:54;;;;;;;13.70;3.63;;;16.00;14.30;;;;;;5037150;28;20534;-67
2022/10/08 12:08:50;;;;;;;5.40;2.90;;;15.90;13.10;;;;;;5027753;28;20427;-68
2022/10/08 12:11:47;;;;;;;4.97;3.10;;;15.90;14.30;;;;;;5031609;28;20920;-67
2022/10/08 12:14:47;;;;;;;6.00;3.10;;;16.00;16.80;;;;;;5031693;28;20415;-67
2022/10/08 12:17:16;;;;;;;5.33;2.73;;;16.00;17.00;;;;;;5019432;28;20783;-67
2022/10/08 12:20:01;;;;;;;6.23;2.67;;;15.90;14.60;;;;;;5013254;28;20408;-67
2022/10/08 12:22:58;;;;;;;5.07;2.43;;;15.90;14.50;;;;;;5013736;28;20442;-68
2022/10/08 12:25:39;;;;;;;4.97;2.00;;;16.10;14.00;;;;;;5012998;28;20443;-68
2022/10/08 12:28:44;;;;;;;5.50;2.43;;;16.20;10.70;;;;;;5013159;28;20829;-68
2022/10/08 12:31:32;;;;;;;6.43;2.77;;;16.30;8.90;;;;;;5031220;28;20429;-68
2022/10/08 12:34:03;;;;;;;9.40;2.70;;;16.10;7.90;;;;;;5026401;28;20417;-67
2022/10/08 12:36:40;;;;;;;6.57;2.47;;;16.30;8.80;;;;;;5021233;28;20507;-68
2022/10/08 12:39:18;;;;;;;6.37;2.30;;;16.40;8.00;;;;;;5022002;28;20441;-67
2022/10/08 12:41:59;;;;;;;8.63;2.50;;;16.40;6.10;;;;;;5031652;28;20761;-68
2022/10/08 12:44:46;;;;;;;5.90;2.30;;;16.00;5.10;;;;;;5034444;28;20480;-68
2022/10/08 12:47:26;;;;;;;4.03;2.80;;;15.80;4.80;;;;;;5015421;28;20430;-67
2022/10/08 12:50:00;;;;;;;2.70;1.63;;;15.80;5.80;;;;;;5028200;28;20447;-67
2022/10/08 12:52:34;;;;;;;6.93;1.97;;;15.60;4.80;;;;;;5025520;28;20754;-68
2022/10/08 12:55:05;;;;;;;4.30;3.00;;;15.60;6.10;;;;;;5031174;28;20462;-67
2022/10/08 12:57:36;;;;;;;4.17;2.40;;;15.50;6.90;;;;;;5022078;28;20403;-67
2022/10/08 13:00:09;;;;;;;4.40;2.57;;;15.40;7.80;;;;;;5027260;28;20455;-68
2022/10/08 13:02:39;;;;;;;3.03;1.90;;;15.40;8.50;;;;;;5038281;28;20439;-69
2022/10/08 13:05:25;;;;;;;4.67;3.40;;;15.30;8.30;;;;;;5015812;28;20515;-66
2022/10/08 13:07:54;;;;;;;4.40;2.60;;;15.10;9.40;;;;;;5033072;28;20443;-68
2022/10/08 13:10:26;;;;;;;8.30;2.80;;;15.10;10.60;;;;;;5033274;28;20411;-69
2022/10/08 13:13:03;;;;;;;3.87;2.30;;;15.20;11.90;;;;;;5020299;28;20460;-68
2022/10/08 13:15:32;;;;;;;2.60;2.23;;;15.40;11.50;;;;;;5028445;28;20498;-67
2022/10/08 13:18:13;;;;;;;7.73;2.83;;;15.60;10.80;;;;;;5013449;28;20436;-68
2022/10/08 13:20:57;;;;;;;10.20;2.93;;;15.70;8.10;;;;;;5015929;28;20456;-68